Details From MDJB - Dr Joaquin Balaguer Intl
To MDBH - MARIA MONTEZ INTL
Flight Number -
Tags generated
Created
Modified
Stats Distance 68 nm / 125 km
Max Altitude 8,500 ft / 2,591 m
Waypoints 3
Social Downloads 2
Likes 0
Share VATSIM

Download

Looking for another format? Having issues loading an existing format? Contact us
Advertisement - Login to hide

Notes

Basic altitude profile: - Ascent Rate: 2500ft/min - Ascent Speed: 250kts - Cruise Altitude: 35000ft - Cruise Speed: 420kts - Descent Rate: 1500ft/min - Descent Speed: 250kts Options: - Use NATs: yes - Use PACOTS: yes - Use low airways: yes - Use high airways: yes

Route

MDJB EPTES MDBH

ID Type Via Altitude Latitude Longitude Leg Dist Tot Dist Heading (true) Name
O MDJB APT - 0 ft / 0 m 18.57251˚ -69.98561˚ - 0 nm - Dr Joaquin Balaguer Intl
EPTES FIX - 8,500 ft / 2,591 m 18.47722˚ -70.39417˚ 23 nm 23 nm 256° / 256° -
O MDBH APT - 0 ft / 0 m 18.25146˚ -71.12040˚ 43 nm 67 nm 252° / 252° MARIA MONTEZ INTL

Altitude Profile

Advertisement - Login to hide

MDJB

Details ICAO MDJB (JBQ)
Name Dr Joaquin Balaguer Intl
Region Dominican Republic
Timezone America/Santo_Domingo (UTC-4.0)
Stats Elevation 98 ft / 30 m (AMSL)
Location 18.572512° -69.985608°
Runways 1
Magnetic Variation 11.393° W

METAR

MDJB 162000Z 07006KT 9999 SCT025 SCT300 30/23 Q1016 NOSIG

Decode

TAF

Not found

Departure Runways

ID Width Length Bearing (true) Bearing (mag) Surface Threshold Offset Overrun Length
01 100 ft / 30 m 5,448 ft / 1,661 m 6.40° 17.79° Asphalt 0 ft / 0 m 90 ft / 27 m
19 100 ft / 30 m 5,448 ft / 1,661 m 186.40° 197.79° Asphalt 0 ft / 0 m 105 ft / 32 m

MDBH

Details ICAO MDBH (BRX)
Name MARIA MONTEZ INTL
Region Dominican Republic
Timezone America/Santo_Domingo (UTC-4.0)
Stats Elevation 10 ft / 3 m (AMSL)
Location 18.251462° -71.120400°
Runways 1
Magnetic Variation 10.777° W

METAR

MDBH 162000Z 18010KT 9999 FEW024 BKN300 31/21 Q1016

Decode

TAF

Not found

Destination Runways

ID Width Length Bearing (true) Bearing (mag) Surface Threshold Offset Overrun Length
12 148 ft / 45 m 9,845 ft / 3,001 m 117.69° 128.47° Asphalt 0 ft / 0 m 0 ft / 0 m
30 148 ft / 45 m 9,845 ft / 3,001 m 297.69° 308.47° Asphalt 0 ft / 0 m 0 ft / 0 m